Eric Bunce — WDF6847 — position and weather

sailwx.info

Track history (hours):
 
Tides and Currents Weather Stations Pressure Air Temp Water Temp Dewpoint Dewpoint Depression Visibility Wind Speed Wind Dir Waves Ship Positions

Eric Bunce

Owner: Destin Trading Corporation, Harahan, LA. More information available from US FCC via Universal Licensing System and Coast Guard Vessel Documentation Center.

Last reported at 2018-Jul-19 18:59 UTC. Time now 2018-Jul-19 19:16 UTC.
Position N 29°59' W 093°53'.

Length 23 m; draft 3 m.

Type: Towing. MMSI: 367478440.

Date/timePositionNaut miles runAvg speedWind from/ knotsBaromVisibWave heightAir tempDewpointWater temp
2018-Jul-19 18:59N 29°59' W 093°53'0 0.0
2018-Jul-19 18:29N 29°59' W 093°53'0 0.0
2018-Jul-19 17:56N 29°59' W 093°53'0 0.0
2018-Jul-19 17:29N 29°59' W 093°53'0 0.0
2018-Jul-19 16:59N 29°59' W 093°53'0 0.0
2018-Jul-19 16:29N 29°59' W 093°53'0 0.0
2018-Jul-19 15:59N 29°59' W 093°53'1 1.8
2018-Jul-19 15:30N 29°59' W 093°52'1 2.0
2018-Jul-19 14:57N 29°58' W 093°51'0 0.0
2018-Jul-19 13:56N 29°58' W 093°51'0 0.0
2018-Jul-19 13:27N 29°58' W 093°51'0 0.0
2018-Jul-19 12:57N 29°58' W 093°51'0 0.0
2018-Jul-19 12:26N 29°58' W 093°51'0 0.0
2018-Jul-19 11:59N 29°58' W 093°51'0 0.0
2018-Jul-19 11:26N 29°58' W 093°51'0 0.0
2018-Jul-19 10:56N 29°58' W 093°51'0 0.0
2018-Jul-19 10:20N 29°58' W 093°51'0 0.0
2018-Jul-19 09:59N 29°58' W 093°51'0 0.0
2018-Jul-19 09:26N 29°58' W 093°51'0 0.0
2018-Jul-19 08:59N 29°58' W 093°51'0 0.8
2018-Jul-19 08:31N 29°58' W 093°51'0 0.9
2018-Jul-19 08:00N 29°58' W 093°52'3 5.9
2018-Jul-19 07:30N 29°59' W 093°55'3 6.1
2018-Jul-19 07:00N 30°01' W 093°58'3 6.4
2018-Jul-19 06:30N 30°01' W 094°01'0 0.2
2018-Jul-19 05:59N 30°01' W 094°02'0 0.0
2018-Jul-19 05:29N 30°01' W 094°02'0 0.0
2018-Jul-19 04:59N 30°01' W 094°02'0 0.0
2018-Jul-19 04:27N 30°01' W 094°02'0 0.0
2018-Jul-19 04:00N 30°01' W 094°02'0 0.0
2018-Jul-19 03:30N 30°01' W 094°02'0 0.0
2018-Jul-19 02:59N 30°01' W 094°02'0 0.0
2018-Jul-19 02:29N 30°01' W 094°02'0 0.0
2018-Jul-19 01:59N 30°01' W 094°02'0 0.0
2018-Jul-19 01:30N 30°01' W 094°02'0 0.0
2018-Jul-19 01:00N 30°01' W 094°02'0 0.0
2018-Jul-19 00:30N 30°01' W 094°02'0 0.0
2018-Jul-19 00:00N 30°01' W 094°02'0 0.0
2018-Jul-18 23:29N 30°01' W 094°02'0 0.0
2018-Jul-18 22:59N 30°01' W 094°02'0 0.0
2018-Jul-18 22:30N 30°01' W 094°02'0 0.0
2018-Jul-18 22:00N 30°01' W 094°02'0 0.0
2018-Jul-18 21:29N 30°01' W 094°02'0 0.0
2018-Jul-18 21:00N 30°01' W 094°02'0 0.0
2018-Jul-18 20:26N 30°01' W 094°02'0 0.0
2018-Jul-18 19:59N 30°01' W 094°02'0 0.0
2018-Jul-18 19:29N 30°01' W 094°02'0 0.0
2018-Jul-18 18:59N 30°01' W 094°02'0 0.0
2018-Jul-18 18:29N 30°01' W 094°02'0 0.0
2018-Jul-18 17:59N 30°01' W 094°02'0 0.0
2018-Jul-18 17:23N 30°01' W 094°02'0 0.0
2018-Jul-18 16:59N 30°01' W 094°02'0 0.0
2018-Jul-18 16:30N 30°01' W 094°02'0 0.1
2018-Jul-18 15:57N 30°01' W 094°01'3 5.9
2018-Jul-18 15:30N 30°01' W 093°59'3 6.3
2018-Jul-18 15:00N 29°59' W 093°55'2 4.2
2018-Jul-18 14:30N 29°59' W 093°53'0 0.0
2018-Jul-18 13:30N 29°59' W 093°53'0 0.0
2018-Jul-18 13:00N 29°59' W 093°53'0 0.0
2018-Jul-18 12:30N 29°59' W 093°53'0 0.0
2018-Jul-18 12:00N 29°59' W 093°53'0 0.0
2018-Jul-18 11:30N 29°59' W 093°53'0 0.0
2018-Jul-18 10:30N 29°59' W 093°53'0 0.0
2018-Jul-18 10:00N 29°59' W 093°53'0 0.0
2018-Jul-18 09:30N 29°59' W 093°53'0 0.0
2018-Jul-18 09:00N 29°59' W 093°53'0 0.0
2018-Jul-18 08:30N 29°59' W 093°53'0 0.0
2018-Jul-18 08:00N 29°59' W 093°53'0 0.0
2018-Jul-18 07:30N 29°59' W 093°53'0 0.0
2018-Jul-18 07:00N 29°59' W 093°53'0 0.0
2018-Jul-18 06:30N 29°59' W 093°53'0 0.0
2018-Jul-18 06:00N 29°59' W 093°53'0 0.0
2018-Jul-18 05:27N 29°59' W 093°53'0 0.0
2018-Jul-18 05:00N 29°59' W 093°53'0 0.0
2018-Jul-18 04:30N 29°59' W 093°53'0 0.0
2018-Jul-18 04:00N 29°59' W 093°53'0 0.0
2018-Jul-18 03:30N 29°59' W 093°53'0 0.0
2018-Jul-18 03:00N 29°59' W 093°53'0 0.0
2018-Jul-18 02:30N 29°59' W 093°53'0 0.0
2018-Jul-18 02:00N 29°59' W 093°53'0 0.0
2018-Jul-18 01:30N 29°59' W 093°53'2 3.9
2018-Jul-18 01:00N 29°58' W 093°51'0 0.2
2018-Jul-18 00:30N 29°58' W 093°51'0 0.0
2018-Jul-18 00:00N 29°58' W 093°51'0 0.0
2018-Jul-17 23:30N 29°58' W 093°51'0 0.0
2018-Jul-17 23:00N 29°58' W 093°51'0 0.0
2018-Jul-17 22:30N 29°58' W 093°51'0 0.0
2018-Jul-17 22:00N 29°58' W 093°51'0 0.0
2018-Jul-17 21:30N 29°58' W 093°51'0 0.0
2018-Jul-17 21:00N 29°58' W 093°51'0 0.0
2018-Jul-17 20:30N 29°58' W 093°51'0 0.0
2018-Jul-17 20:00N 29°58' W 093°51'0 0.0
2018-Jul-17 19:30N 29°58' W 093°51'0 0.0
2018-Jul-17 19:00N 29°58' W 093°51'0 0.0
2018-Jul-17 18:30N 29°58' W 093°51'0 0.1
2018-Jul-17 18:00N 29°58' W 093°51'0 0.9
2018-Jul-17 17:30N 29°58' W 093°51'4 7.1
2018-Jul-17 17:00N 29°59' W 093°55'3 6.8
2018-Jul-17 16:31N 30°01' W 093°59'3 4.0
2018-Jul-17 15:52N 30°01' W 094°02'0 0.0
2018-Jul-17 15:28N 30°01' W 094°02'0 0.0
2018-Jul-17 14:58N 30°01' W 094°02'0 0.0
2018-Jul-17 14:28N 30°01' W 094°02'0 0.0
2018-Jul-17 13:58N 30°01' W 094°02'0 0.0
2018-Jul-17 13:28N 30°01' W 094°02'0 0.0
2018-Jul-17 12:58N 30°01' W 094°02'0 0.0
2018-Jul-17 12:28N 30°01' W 094°02'0 0.0
2018-Jul-17 11:58N 30°01' W 094°02'0 0.0
2018-Jul-17 11:28N 30°01' W 094°02'0 0.0
2018-Jul-17 10:58N 30°01' W 094°02'0 0.0
2018-Jul-17 10:28N 30°01' W 094°02'0 0.0
2018-Jul-17 09:58N 30°01' W 094°02'0 0.0
2018-Jul-17 09:25N 30°01' W 094°02'0 0.0
2018-Jul-17 08:52N 30°01' W 094°02'0 0.0
2018-Jul-17 08:28N 30°01' W 094°02'0 0.0
2018-Jul-17 07:58N 30°01' W 094°02'0 0.0
2018-Jul-17 07:28N 30°01' W 094°02'0 0.0
2018-Jul-17 06:58N 30°01' W 094°02'0 0.0
2018-Jul-17 06:28N 30°01' W 094°02'0 0.0
2018-Jul-17 05:58N 30°01' W 094°02'0 0.0
2018-Jul-17 05:28N 30°01' W 094°02'0 0.1
2018-Jul-17 04:58N 30°01' W 094°02'0 1.0
2018-Jul-17 04:30N 30°01' W 094°01'3 6.8
2018-Jul-17 04:00N 30°00' W 093°57'4 7.3
2018-Jul-17 03:31N 29°59' W 093°53'0 0.7
2018-Jul-17 02:59N 29°59' W 093°53'0 0.0
2018-Jul-17 02:29N 29°59' W 093°53'0 0.0
2018-Jul-17 01:59N 29°59' W 093°53'0 0.0
2018-Jul-17 01:29N 29°59' W 093°53'0 0.0
2018-Jul-17 00:59N 29°59' W 093°53'0 0.0
2018-Jul-17 00:29N 29°59' W 093°53'0 0.0
2018-Jul-16 23:30N 29°59' W 093°53'0 0.0
2018-Jul-16 23:00N 29°59' W 093°53'0 0.0
2018-Jul-16 22:30N 29°59' W 093°53'0 0.0
2018-Jul-16 22:00N 29°59' W 093°53'0 0.0
2018-Jul-16 21:30N 29°59' W 093°53'0 0.0
2018-Jul-16 21:00N 29°59' W 093°53'0 0.0
2018-Jul-16 20:30N 29°59' W 093°53'0 0.0
2018-Jul-16 20:00N 29°59' W 093°53'0 0.0
2018-Jul-16 19:30N 29°59' W 093°53'0 0.0
2018-Jul-16 19:00N 29°59' W 093°53'0 0.0
2018-Jul-16 18:30N 29°59' W 093°53'0 0.0
2018-Jul-16 18:00N 29°59' W 093°53'1 1.7
2018-Jul-16 17:30N 29°59' W 093°52'1 2.3
2018-Jul-16 17:00N 29°58' W 093°51'0 0.0
2018-Jul-16 16:30N 29°58' W 093°51'0 0.0
2018-Jul-16 16:00N 29°58' W 093°51'0 0.0
2018-Jul-16 15:30N 29°58' W 093°51'0 0.0
2018-Jul-16 15:00N 29°58' W 093°51'0 0.0
2018-Jul-16 14:30N 29°58' W 093°51'0 0.0
2018-Jul-16 14:00N 29°58' W 093°51'0 0.0
2018-Jul-16 13:30N 29°58' W 093°51'0 0.0
2018-Jul-16 13:00N 29°58' W 093°51'0 0.0
2018-Jul-16 12:30N 29°58' W 093°51'0 0.0
2018-Jul-16 12:00N 29°58' W 093°51'0 0.0
2018-Jul-16 11:30N 29°58' W 093°51'0 0.0
2018-Jul-16 11:00N 29°58' W 093°51'0 0.0
2018-Jul-16 10:31N 29°58' W 093°51'0 0.0
2018-Jul-16 10:01N 29°58' W 093°51'0 0.0
2018-Jul-16 09:30N 29°58' W 093°51'0 0.0
2018-Jul-16 09:00N 29°58' W 093°51'0 0.0
2018-Jul-16 08:30N 29°58' W 093°51'0 0.0
2018-Jul-16 08:00N 29°58' W 093°51'0 0.0
2018-Jul-16 07:30N 29°58' W 093°51'0 0.0
2018-Jul-16 07:00N 29°58' W 093°51'0 0.0
2018-Jul-16 06:30N 29°58' W 093°51'0 0.0
2018-Jul-16 06:00N 29°58' W 093°51'0 0.0
2018-Jul-16 05:30N 29°58' W 093°51'0 0.0
2018-Jul-16 05:00N 29°58' W 093°51'0 0.0
2018-Jul-16 04:29N 29°58' W 093°51'0 0.0
2018-Jul-16 04:00N 29°58' W 093°51'0 0.0
2018-Jul-16 03:30N 29°58' W 093°51'0 0.0
2018-Jul-16 03:00N 29°58' W 093°51'0 0.3
2018-Jul-16 02:30N 29°58' W 093°51'0 0.0
2018-Jul-16 02:00N 29°58' W 093°51'0 0.0
2018-Jul-16 01:30N 29°58' W 093°51'0 0.0
2018-Jul-16 01:00N 29°58' W 093°51'0 0.0
2018-Jul-16 00:29N 29°58' W 093°51'0 0.0
2018-Jul-16 00:00N 29°58' W 093°51'0 0.0
2018-Jul-15 23:30N 29°58' W 093°51'0 0.3
2018-Jul-15 23:00N 29°58' W 093°51'0 0.0
2018-Jul-15 22:29N 29°58' W 093°51'0 0.0
2018-Jul-15 22:00N 29°58' W 093°51'0 0.0
2018-Jul-15 21:30N 29°58' W 093°51'0 0.0
2018-Jul-15 20:59N 29°58' W 093°51'0 0.0
2018-Jul-15 20:31N 29°58' W 093°51'0 0.0
2018-Jul-15 20:00N 29°58' W 093°51'0 0.0
2018-Jul-15 19:30N 29°58' W 093°51'0 0.0
2018-Jul-15 18:58N 29°58' W 093°51'0 0.0
2018-Jul-15 18:30N 29°58' W 093°51'0 0.0
2018-Jul-15 18:00N 29°58' W 093°51'0 0.0
2018-Jul-15 17:30N 29°58' W 093°51'0 0.0
2018-Jul-15 17:00N 29°58' W 093°51'0 0.0
2018-Jul-15 16:30N 29°58' W 093°51'0 0.0
2018-Jul-15 16:00N 29°58' W 093°51'0 0.0
2018-Jul-15 15:30N 29°58' W 093°51'0 0.0
2018-Jul-15 15:00N 29°58' W 093°51'0 0.0
2018-Jul-15 14:30N 29°58' W 093°51'0 0.0
2018-Jul-15 14:00N 29°58' W 093°51'0 0.0
2018-Jul-15 13:30N 29°58' W 093°51'0 0.0
2018-Jul-15 13:00N 29°58' W 093°51'0 0.0
2018-Jul-15 12:30N 29°58' W 093°51'0 0.0
2018-Jul-15 12:01N 29°58' W 093°51'0 0.0
2018-Jul-15 11:30N 29°58' W 093°51'0 0.0
2018-Jul-15 11:00N 29°58' W 093°51'0 0.0
2018-Jul-15 10:30N 29°58' W 093°51'0 0.0
2018-Jul-15 10:00N 29°58' W 093°51'0 0.0
2018-Jul-15 09:30N 29°58' W 093°51'0 0.0
2018-Jul-15 09:00N 29°58' W 093°51'0 0.0
2018-Jul-15 08:30N 29°58' W 093°51'0 0.0
2018-Jul-15 08:00N 29°58' W 093°51'0 0.0
2018-Jul-15 07:30N 29°58' W 093°51'0 0.0
2018-Jul-15 07:00N 29°58' W 093°51'0 0.0
2018-Jul-15 06:30N 29°58' W 093°51'0 0.0
2018-Jul-15 06:00N 29°58' W 093°51'0 0.0
2018-Jul-15 05:30N 29°58' W 093°51'0 0.0
2018-Jul-15 05:00N 29°58' W 093°51'0 0.0
2018-Jul-15 04:30N 29°58' W 093°51'0 0.0
2018-Jul-15 04:00N 29°58' W 093°51'0 0.0
2018-Jul-15 03:30N 29°58' W 093°51'0 0.0
2018-Jul-15 03:00N 29°58' W 093°51'0 0.0
2018-Jul-15 02:30N 29°58' W 093°51'0 0.3
2018-Jul-15 02:00N 29°58' W 093°51'0 0.0
2018-Jul-15 01:30N 29°58' W 093°51'0 0.0
2018-Jul-15 01:00N 29°58' W 093°51'0 0.0
2018-Jul-15 00:30N 29°58' W 093°51'0 0.0
2018-Jul-15 00:00N 29°58' W 093°51'0 0.1
2018-Jul-14 23:30N 29°58' W 093°51'0 0.2
2018-Jul-14 23:00N 29°58' W 093°51'0 0.0
2018-Jul-14 22:30N 29°58' W 093°51'0 0.0
2018-Jul-14 22:00N 29°58' W 093°51'0 0.0
2018-Jul-14 21:30N 29°58' W 093°51'0 0.0
2018-Jul-14 21:00N 29°58' W 093°51'0 0.0
2018-Jul-14 20:30N 29°58' W 093°51'0 0.0
2018-Jul-14 20:00N 29°58' W 093°51'0 0.0
2018-Jul-14 19:30N 29°58' W 093°51'0 0.0
2018-Jul-14 19:00N 29°58' W 093°51'0 0.0
2018-Jul-14 18:30N 29°58' W 093°51'0 0.0
2018-Jul-14 18:00N 29°58' W 093°51'1 1.6
2018-Jul-14 17:30N 29°58' W 093°51'0 0.0
2018-Jul-14 17:00N 29°58' W 093°51'0 0.0
2018-Jul-14 16:30N 29°58' W 093°51'0 0.0
2018-Jul-14 16:00N 29°58' W 093°51'0 0.0
2018-Jul-14 15:30N 29°58' W 093°51'0 0.0
2018-Jul-14 15:00N 29°58' W 093°51'0 0.0
2018-Jul-14 14:30N 29°58' W 093°51'0 0.0
2018-Jul-14 13:30N 29°58' W 093°51'1 1.4
2018-Jul-14 13:00N 29°58' W 093°51'0 0.2
2018-Jul-14 12:30N 29°58' W 093°51'0 0.0
2018-Jul-14 12:00N 29°58' W 093°51'0 0.0
2018-Jul-14 11:30N 29°58' W 093°51'0 0.0
2018-Jul-14 11:00N 29°58' W 093°51'0 0.0
2018-Jul-14 10:30N 29°58' W 093°51'0 0.0
2018-Jul-14 10:00N 29°58' W 093°51'0 0.0
2018-Jul-14 09:30N 29°58' W 093°51'0 0.0
2018-Jul-14 09:00N 29°58' W 093°51'0 0.0
2018-Jul-14 08:30N 29°58' W 093°51'0 0.0
2018-Jul-14 08:00N 29°58' W 093°51'0 0.0
2018-Jul-14 07:30N 29°58' W 093°51'0 0.0
2018-Jul-14 07:00N 29°58' W 093°51'0 0.0
2018-Jul-14 06:30N 29°58' W 093°51'0 0.0
2018-Jul-14 06:00N 29°58' W 093°51'0 0.0
2018-Jul-14 05:30N 29°58' W 093°51'0 0.0
2018-Jul-14 05:00N 29°58' W 093°51'0 0.0
2018-Jul-14 04:30N 29°58' W 093°51'0 0.0
2018-Jul-14 04:00N 29°58' W 093°51'0 0.0
2018-Jul-14 03:30N 29°58' W 093°51'0 0.0
2018-Jul-14 03:00N 29°58' W 093°51'0 0.0
2018-Jul-14 02:30N 29°58' W 093°51'0 0.0
2018-Jul-14 02:00N 29°58' W 093°51'0 0.0
2018-Jul-14 01:31N 29°58' W 093°51'0 0.0
2018-Jul-14 01:00N 29°58' W 093°51'0 0.0
2018-Jul-14 00:30N 29°58' W 093°51'0 0.0
2018-Jul-14 00:00N 29°58' W 093°51'0 0.0
2018-Jul-13 23:30N 29°58' W 093°51'0 0.0
2018-Jul-13 23:00N 29°58' W 093°51'0 0.0
2018-Jul-13 22:30N 29°58' W 093°51'0 0.0
2018-Jul-13 22:00N 29°58' W 093°51'0 0.0
2018-Jul-13 21:30N 29°58' W 093°51'0 0.0
2018-Jul-13 21:00N 29°58' W 093°51'0 0.0
2018-Jul-13 20:30N 29°58' W 093°51'0 0.0
2018-Jul-13 20:00N 29°58' W 093°51'0 0.0
2018-Jul-13 19:30N 29°58' W 093°51'0 0.0
2018-Jul-13 19:00N 29°58' W 093°51'0 0.0
2018-Jul-13 18:30N 29°58' W 093°51'1 1.6
2018-Jul-13 18:01N 29°58' W 093°52'0 0.1
2018-Jul-13 17:29N 29°58' W 093°52'0 0.0
2018-Jul-13 17:00N 29°58' W 093°52'0 0.0
2018-Jul-13 16:30N 29°58' W 093°52'0 0.0
2018-Jul-13 16:00N 29°58' W 093°52'0 0.0
2018-Jul-13 15:30N 29°58' W 093°52'1 1.5
2018-Jul-13 15:00N 29°58' W 093°51'0 0.2
2018-Jul-13 14:30N 29°58' W 093°51'0 0.0
2018-Jul-13 13:31N 29°58' W 093°51'0 0.0
2018-Jul-13 13:00N 29°58' W 093°51'0 0.0
2018-Jul-13 12:30N 29°58' W 093°51'0 0.0
2018-Jul-13 12:00N 29°58' W 093°51'0 0.0
2018-Jul-13 11:31N 29°58' W 093°51'0 0.0
2018-Jul-13 11:00N 29°58' W 093°51'0 0.0
2018-Jul-13 10:31N 29°58' W 093°51'0 0.0
2018-Jul-13 10:00N 29°58' W 093°51'0 0.0
2018-Jul-13 09:30N 29°58' W 093°51'0 0.0
2018-Jul-13 09:00N 29°58' W 093°51'0 0.0
2018-Jul-13 08:30N 29°58' W 093°51'0 0.0
2018-Jul-13 08:00N 29°58' W 093°51'0 0.3
2018-Jul-13 07:30N 29°58' W 093°51'3 6.6
2018-Jul-13 07:00N 29°55' W 093°53'4 7.3
2018-Jul-13 06:30N 29°53' W 093°55'3 6.1
2018-Jul-13 06:00N 29°50' W 093°57'3 6.6
2018-Jul-13 05:30N 29°48' W 094°00'3 6.8
2018-Jul-13 05:00N 29°46' W 094°03'2 4.5
2018-Jul-13 04:30N 29°44' W 094°05'3 6.7
2018-Jul-13 04:00N 29°42' W 094°08'4 7.3
2018-Jul-13 03:30N 29°41' W 094°12'3 6.4
2018-Jul-13 03:00N 29°39' W 094°15'4 7.0
2018-Jul-13 02:30N 29°38' W 094°19'3 6.3
2018-Jul-13 01:58N 29°36' W 094°22'20 5.8
2018-Jul-12 22:34N 29°26' W 094°42'1 7.3
2018-Jul-12 22:27N 29°26' W 094°43'3 7.4
2018-Jul-12 22:00N 29°24' W 094°46'3 5.4
2018-Jul-12 21:30N 29°23' W 094°49'23 6.7
2018-Jul-12 18:03N 29°34' W 094°25'2 7.0
2018-Jul-12 17:48N 29°36' W 094°25'1 4.0
2018-Jul-12 17:30N 29°36' W 094°23'3 5.9
2018-Jul-12 17:00N 29°37' W 094°20'4 7.4
2018-Jul-12 16:30N 29°39' W 094°16'4 7.4
2018-Jul-12 16:00N 29°41' W 094°13'4 7.2
2018-Jul-12 15:30N 29°42' W 094°09'4 7.5
2018-Jul-12 15:00N 29°44' W 094°05'4 7.6
2018-Jul-12 14:30N 29°47' W 094°02'4 7.1
2018-Jul-12 14:00N 29°49' W 093°59'3 6.2
2018-Jul-12 13:30N 29°51' W 093°57'3 6.9
2018-Jul-12 13:00N 29°54' W 093°54'3 6.8
2018-Jul-12 12:30N 29°57' W 093°52'2 3.7
2018-Jul-12 12:00N 29°58' W 093°51'0 0.2
2018-Jul-12 11:30N 29°58' W 093°51'0 0.0
2018-Jul-12 11:01N 29°58' W 093°51'0 0.0
2018-Jul-12 10:30N 29°58' W 093°51'0 0.0
2018-Jul-12 10:00N 29°58' W 093°51'0 0.0
2018-Jul-12 09:29N 29°58' W 093°51'0 0.0
2018-Jul-12 09:00N 29°58' W 093°51'0 0.0
2018-Jul-12 08:30N 29°58' W 093°51'0 0.0
2018-Jul-12 08:00N 29°58' W 093°51'0 0.0
2018-Jul-12 07:30N 29°58' W 093°51'0 0.0
2018-Jul-12 07:00N 29°58' W 093°51'0 0.0
2018-Jul-12 06:31N 29°58' W 093°51'0 0.0
2018-Jul-12 06:00N 29°58' W 093°51'0 0.0
2018-Jul-12 05:30N 29°58' W 093°51'0 0.0
2018-Jul-12 05:00N 29°58' W 093°51'0 0.0
2018-Jul-12 04:30N 29°58' W 093°51'0 0.0
2018-Jul-12 03:59N 29°58' W 093°51'0 0.0
2018-Jul-12 03:30N 29°58' W 093°51'0 0.0
2018-Jul-12 03:00N 29°58' W 093°51'0 0.0
2018-Jul-12 02:30N 29°58' W 093°51'0 0.0
2018-Jul-12 02:00N 29°58' W 093°51'0 0.7
2018-Jul-12 01:30N 29°58' W 093°51'0 0.0
2018-Jul-12 01:00N 29°58' W 093°51'0 0.0
2018-Jul-12 00:30N 29°58' W 093°51'1 1.4
2018-Jul-12 00:01N 29°59' W 093°52'3 6.1
2018-Jul-11 23:31N 29°59' W 093°55'1 3.0
2018-Jul-11 23:01N 29°60' W 093°57'0 0.0
2018-Jul-11 22:31N 29°60' W 093°57'0 0.0
2018-Jul-11 21:59N 29°60' W 093°57'0 0.0
2018-Jul-11 21:29N 29°60' W 093°57'0 0.0
2018-Jul-11 21:00N 29°60' W 093°57'0 0.0
2018-Jul-11 20:29N 29°60' W 093°57'0 0.0
2018-Jul-11 20:00N 29°60' W 093°57'0 0.0
2018-Jul-11 19:30N 29°60' W 093°57'0 0.0
2018-Jul-11 19:00N 29°60' W 093°57'0 0.0
2018-Jul-11 18:30N 29°60' W 093°57'0 0.0
2018-Jul-11 18:00N 29°60' W 093°57'0 0.0
2018-Jul-11 17:30N 29°60' W 093°57'0 0.0
2018-Jul-11 17:00N 29°60' W 093°57'0 0.0
2018-Jul-11 16:29N 29°60' W 093°57'0 0.0
2018-Jul-11 16:00N 29°60' W 093°57'0 0.0
2018-Jul-11 15:30N 29°60' W 093°57'0 0.0
2018-Jul-11 15:00N 29°60' W 093°57'0 0.0
2018-Jul-11 14:30N 29°60' W 093°57'0 0.0
2018-Jul-11 14:00N 29°60' W 093°57'0 0.0
2018-Jul-11 13:30N 29°60' W 093°57'0 0.0
2018-Jul-11 13:00N 29°60' W 093°57'0 0.0
2018-Jul-11 12:30N 29°60' W 093°57'0 0.0
2018-Jul-11 12:00N 29°60' W 093°57'0 0.0
2018-Jul-11 11:30N 29°60' W 093°57'0 0.0
2018-Jul-11 10:59N 29°60' W 093°57'0 0.0
2018-Jul-11 10:30N 29°60' W 093°57'0 0.0
2018-Jul-11 09:57N 29°60' W 093°57'0 0.0
2018-Jul-11 09:30N 29°60' W 093°57'0 0.0
2018-Jul-11 08:59N 29°60' W 093°57'0 0.0
2018-Jul-11 08:29N 29°60' W 093°57'0 0.0
2018-Jul-11 08:00N 29°60' W 093°57'0 0.0
2018-Jul-11 07:30N 29°60' W 093°57'0 0.0
2018-Jul-11 07:00N 29°60' W 093°57'0 0.0
2018-Jul-11 06:30N 29°60' W 093°57'0 0.0
2018-Jul-11 06:00N 29°60' W 093°57'0 0.0
2018-Jul-11 05:30N 29°60' W 093°57'0 0.0
2018-Jul-11 04:59N 29°60' W 093°57'0 0.0
2018-Jul-11 04:30N 29°60' W 093°57'0 0.0
2018-Jul-11 04:00N 29°60' W 093°57'0 0.0
2018-Jul-11 03:30N 29°60' W 093°57'0 0.0
2018-Jul-11 03:00N 29°60' W 093°57'0 0.0
2018-Jul-11 02:30N 29°60' W 093°57'0 0.0
2018-Jul-11 02:00N 29°60' W 093°57'0 0.0
2018-Jul-11 01:30N 29°60' W 093°57'0 0.0
2018-Jul-11 01:00N 29°60' W 093°57'0 0.0
2018-Jul-11 00:30N 29°60' W 093°57'0 0.0
2018-Jul-11 00:00N 29°60' W 093°57'0 0.0
2018-Jul-10 23:30N 29°60' W 093°57'0 0.0
2018-Jul-10 23:00N 29°60' W 093°57'0 0.5
2018-Jul-10 22:30N 29°60' W 093°57'3 5.0
2018-Jul-10 22:00N 29°59' W 093°54'2 4.6
2018-Jul-10 21:30N 29°58' W 093°51'0 1.0
2018-Jul-10 21:00N 29°58' W 093°51'0 0.0
2018-Jul-10 20:30N 29°58' W 093°51'0 0.0
2018-Jul-10 20:00N 29°58' W 093°51'0 0.0
2018-Jul-10 19:30N 29°58' W 093°51'0 0.0
2018-Jul-10 19:00N 29°58' W 093°51'0 0.0
2018-Jul-10 18:30N 29°58' W 093°51'0 0.0
2018-Jul-10 18:00N 29°58' W 093°51'0 0.0
2018-Jul-10 17:30N 29°58' W 093°51'0 0.0
2018-Jul-10 17:00N 29°58' W 093°51'0 0.0
2018-Jul-10 16:30N 29°58' W 093°51'0 0.0
2018-Jul-10 16:00N 29°58' W 093°51'0 0.0
2018-Jul-10 15:30N 29°58' W 093°51'0 0.0
2018-Jul-10 15:00N 29°58' W 093°51'0 0.2
2018-Jul-10 14:30N 29°58' W 093°51'0 0.1
2018-Jul-10 14:00N 29°58' W 093°51'0 0.0
2018-Jul-10 13:29N 29°58' W 093°51'0 0.3
2018-Jul-10 13:00N 29°58' W 093°51'0 0.3
2018-Jul-10 12:30N 29°58' W 093°51'0 0.0
2018-Jul-10 12:00N 29°58' W 093°51'0 0.0
2018-Jul-10 11:30N 29°58' W 093°51'0 0.0
2018-Jul-10 11:00N 29°58' W 093°51'0 0.0
2018-Jul-10 10:30N 29°58' W 093°51'0 0.0
2018-Jul-10 10:00N 29°58' W 093°51'0 0.0
2018-Jul-10 09:31N 29°58' W 093°51'0 0.0
2018-Jul-10 09:00N 29°58' W 093°51'0 0.0
2018-Jul-10 08:30N 29°58' W 093°51'0 0.0
2018-Jul-10 08:00N 29°58' W 093°51'0 0.0
2018-Jul-10 07:31N 29°58' W 093°51'0 0.0
2018-Jul-10 07:00N 29°58' W 093°51'0 0.0
2018-Jul-10 06:30N 29°58' W 093°51'0 0.0
2018-Jul-10 06:00N 29°58' W 093°51'0 0.0
2018-Jul-10 05:31N 29°58' W 093°51'0 0.0
2018-Jul-10 05:00N 29°58' W 093°51'0 0.0
2018-Jul-10 04:31N 29°58' W 093°51'0 0.0
2018-Jul-10 04:00N 29°58' W 093°51'0 0.0
2018-Jul-10 03:30N 29°58' W 093°51'0 0.0
2018-Jul-10 03:00N 29°58' W 093°51'0 0.0
2018-Jul-10 02:30N 29°58' W 093°51'0 0.0
2018-Jul-10 02:01N 29°58' W 093°51'0 0.0
2018-Jul-10 01:30N 29°58' W 093°51'0 0.0
2018-Jul-10 01:00N 29°58' W 093°51'0 0.0
2018-Jul-10 00:30N 29°58' W 093°51'0 0.0
2018-Jul-10 00:00N 29°58' W 093°51'0 0.0
2018-Jul-09 23:30N 29°58' W 093°51'0 0.0
2018-Jul-09 23:00N 29°58' W 093°51'0 0.0
2018-Jul-09 22:30N 29°58' W 093°51'0 0.0
2018-Jul-09 22:00N 29°58' W 093°51'0 0.0
2018-Jul-09 21:30N 29°58' W 093°51'0 0.0
2018-Jul-09 21:01N 29°58' W 093°51'0 0.0
2018-Jul-09 20:30N 29°58' W 093°51'0 0.0
2018-Jul-09 20:00N 29°58' W 093°51'0 0.0
2018-Jul-09 19:30N 29°58' W 093°51'0 0.0
2018-Jul-09 19:00N 29°58' W 093°51'  
Track history (hours):
 
Tides and Currents Weather Stations Pressure Air Temp Water Temp Dewpoint Dewpoint Depression Visibility Wind Speed Wind Dir Waves Ship Positions

Eric Bunce

Owner: Destin Trading Corporation, Harahan, LA. More information available from US FCC via Universal Licensing System and Coast Guard Vessel Documentation Center.

Last reported at 2018-Jul-19 18:59 UTC. Time now 2018-Jul-19 19:16 UTC.
Position N 29°59' W 093°53'.

Length 23 m; draft 3 m.

Type: Towing. MMSI: 367478440.

Date/timePositionNaut miles runAvg speedWind from/ knotsBaromVisibWave heightAir tempDewpointWater temp
2018-Jul-19 18:59N 29°59' W 093°53'0 0.0
2018-Jul-19 18:29N 29°59' W 093°53'0 0.0
2018-Jul-19 17:56N 29°59' W 093°53'0 0.0
2018-Jul-19 17:29N 29°59' W 093°53'0 0.0
2018-Jul-19 16:59N 29°59' W 093°53'0 0.0
2018-Jul-19 16:29N 29°59' W 093°53'0 0.0
2018-Jul-19 15:59N 29°59' W 093°53'1 1.8
2018-Jul-19 15:30N 29°59' W 093°52'1 2.0
2018-Jul-19 14:57N 29°58' W 093°51'0 0.0
2018-Jul-19 13:56N 29°58' W 093°51'0 0.0
2018-Jul-19 13:27N 29°58' W 093°51'0 0.0
2018-Jul-19 12:57N 29°58' W 093°51'0 0.0
2018-Jul-19 12:26N 29°58' W 093°51'0 0.0
2018-Jul-19 11:59N 29°58' W 093°51'0 0.0
2018-Jul-19 11:26N 29°58' W 093°51'0 0.0
2018-Jul-19 10:56N 29°58' W 093°51'0 0.0
2018-Jul-19 10:20N 29°58' W 093°51'0 0.0
2018-Jul-19 09:59N 29°58' W 093°51'0 0.0
2018-Jul-19 09:26N 29°58' W 093°51'0 0.0
2018-Jul-19 08:59N 29°58' W 093°51'0 0.8
2018-Jul-19 08:31N 29°58' W 093°51'0 0.9
2018-Jul-19 08:00N 29°58' W 093°52'3 5.9
2018-Jul-19 07:30N 29°59' W 093°55'3 6.1
2018-Jul-19 07:00N 30°01' W 093°58'3 6.4
2018-Jul-19 06:30N 30°01' W 094°01'0 0.2
2018-Jul-19 05:59N 30°01' W 094°02'0 0.0
2018-Jul-19 05:29N 30°01' W 094°02'0 0.0
2018-Jul-19 04:59N 30°01' W 094°02'0 0.0
2018-Jul-19 04:27N 30°01' W 094°02'0 0.0
2018-Jul-19 04:00N 30°01' W 094°02'0 0.0
2018-Jul-19 03:30N 30°01' W 094°02'0 0.0
2018-Jul-19 02:59N 30°01' W 094°02'0 0.0
2018-Jul-19 02:29N 30°01' W 094°02'0 0.0
2018-Jul-19 01:59N 30°01' W 094°02'0 0.0
2018-Jul-19 01:30N 30°01' W 094°02'0 0.0
2018-Jul-19 01:00N 30°01' W 094°02'0 0.0
2018-Jul-19 00:30N 30°01' W 094°02'0 0.0
2018-Jul-19 00:00N 30°01' W 094°02'0 0.0
2018-Jul-18 23:29N 30°01' W 094°02'0 0.0
2018-Jul-18 22:59N 30°01' W 094°02'0 0.0
2018-Jul-18 22:30N 30°01' W 094°02'0 0.0
2018-Jul-18 22:00N 30°01' W 094°02'0 0.0
2018-Jul-18 21:29N 30°01' W 094°02'0 0.0
2018-Jul-18 21:00N 30°01' W 094°02'0 0.0
2018-Jul-18 20:26N 30°01' W 094°02'0 0.0
2018-Jul-18 19:59N 30°01' W 094°02'0 0.0
2018-Jul-18 19:29N 30°01' W 094°02'0 0.0
2018-Jul-18 18:59N 30°01' W 094°02'0 0.0
2018-Jul-18 18:29N 30°01' W 094°02'0 0.0
2018-Jul-18 17:59N 30°01' W 094°02'0 0.0
2018-Jul-18 17:23N 30°01' W 094°02'0 0.0
2018-Jul-18 16:59N 30°01' W 094°02'0 0.0
2018-Jul-18 16:30N 30°01' W 094°02'0 0.1
2018-Jul-18 15:57N 30°01' W 094°01'3 5.9
2018-Jul-18 15:30N 30°01' W 093°59'3 6.3
2018-Jul-18 15:00N 29°59' W 093°55'2 4.2
2018-Jul-18 14:30N 29°59' W 093°53'0 0.0
2018-Jul-18 13:30N 29°59' W 093°53'0 0.0
2018-Jul-18 13:00N 29°59' W 093°53'0 0.0
2018-Jul-18 12:30N 29°59' W 093°53'0 0.0
2018-Jul-18 12:00N 29°59' W 093°53'0 0.0
2018-Jul-18 11:30N 29°59' W 093°53'0 0.0
2018-Jul-18 10:30N 29°59' W 093°53'0 0.0
2018-Jul-18 10:00N 29°59' W 093°53'0 0.0
2018-Jul-18 09:30N 29°59' W 093°53'0 0.0
2018-Jul-18 09:00N 29°59' W 093°53'0 0.0
2018-Jul-18 08:30N 29°59' W 093°53'0 0.0
2018-Jul-18 08:00N 29°59' W 093°53'0 0.0
2018-Jul-18 07:30N 29°59' W 093°53'0 0.0
2018-Jul-18 07:00N 29°59' W 093°53'0 0.0
2018-Jul-18 06:30N 29°59' W 093°53'0 0.0
2018-Jul-18 06:00N 29°59' W 093°53'0 0.0
2018-Jul-18 05:27N 29°59' W 093°53'0 0.0
2018-Jul-18 05:00N 29°59' W 093°53'0 0.0
2018-Jul-18 04:30N 29°59' W 093°53'0 0.0
2018-Jul-18 04:00N 29°59' W 093°53'0 0.0
2018-Jul-18 03:30N 29°59' W 093°53'0 0.0
2018-Jul-18 03:00N 29°59' W 093°53'0 0.0
2018-Jul-18 02:30N 29°59' W 093°53'0 0.0
2018-Jul-18 02:00N 29°59' W 093°53'0 0.0
2018-Jul-18 01:30N 29°59' W 093°53'2 3.9
2018-Jul-18 01:00N 29°58' W 093°51'0 0.2
2018-Jul-18 00:30N 29°58' W 093°51'0 0.0
2018-Jul-18 00:00N 29°58' W 093°51'0 0.0
2018-Jul-17 23:30N 29°58' W 093°51'0 0.0
2018-Jul-17 23:00N 29°58' W 093°51'0 0.0
2018-Jul-17 22:30N 29°58' W 093°51'0 0.0
2018-Jul-17 22:00N 29°58' W 093°51'0 0.0
2018-Jul-17 21:30N 29°58' W 093°51'0 0.0
2018-Jul-17 21:00N 29°58' W 093°51'0 0.0
2018-Jul-17 20:30N 29°58' W 093°51'0 0.0
2018-Jul-17 20:00N 29°58' W 093°51'0 0.0
2018-Jul-17 19:30N 29°58' W 093°51'0 0.0
2018-Jul-17 19:00N 29°58' W 093°51'0 0.0
2018-Jul-17 18:30N 29°58' W 093°51'0 0.1
2018-Jul-17 18:00N 29°58' W 093°51'0 0.9
2018-Jul-17 17:30N 29°58' W 093°51'4 7.1
2018-Jul-17 17:00N 29°59' W 093°55'3 6.8
2018-Jul-17 16:31N 30°01' W 093°59'3 4.0
2018-Jul-17 15:52N 30°01' W 094°02'0 0.0
2018-Jul-17 15:28N 30°01' W 094°02'0 0.0
2018-Jul-17 14:58N 30°01' W 094°02'0 0.0
2018-Jul-17 14:28N 30°01' W 094°02'0 0.0
2018-Jul-17 13:58N 30°01' W 094°02'0 0.0
2018-Jul-17 13:28N 30°01' W 094°02'0 0.0
2018-Jul-17 12:58N 30°01' W 094°02'0 0.0
2018-Jul-17 12:28N 30°01' W 094°02'0 0.0
2018-Jul-17 11:58N 30°01' W 094°02'0 0.0
2018-Jul-17 11:28N 30°01' W 094°02'0 0.0
2018-Jul-17 10:58N 30°01' W 094°02'0 0.0
2018-Jul-17 10:28N 30°01' W 094°02'0 0.0
2018-Jul-17 09:58N 30°01' W 094°02'0 0.0
2018-Jul-17 09:25N 30°01' W 094°02'0 0.0
2018-Jul-17 08:52N 30°01' W 094°02'0 0.0
2018-Jul-17 08:28N 30°01' W 094°02'0 0.0
2018-Jul-17 07:58N 30°01' W 094°02'0 0.0
2018-Jul-17 07:28N 30°01' W 094°02'0 0.0
2018-Jul-17 06:58N 30°01' W 094°02'0 0.0
2018-Jul-17 06:28N 30°01' W 094°02'0 0.0
2018-Jul-17 05:58N 30°01' W 094°02'0 0.0
2018-Jul-17 05:28N 30°01' W 094°02'0 0.1
2018-Jul-17 04:58N 30°01' W 094°02'0 1.0
2018-Jul-17 04:30N 30°01' W 094°01'3 6.8
2018-Jul-17 04:00N 30°00' W 093°57'4 7.3
2018-Jul-17 03:31N 29°59' W 093°53'0 0.7
2018-Jul-17 02:59N 29°59' W 093°53'0 0.0
2018-Jul-17 02:29N 29°59' W 093°53'0 0.0
2018-Jul-17 01:59N 29°59' W 093°53'0 0.0
2018-Jul-17 01:29N 29°59' W 093°53'0 0.0
2018-Jul-17 00:59N 29°59' W 093°53'0 0.0
2018-Jul-17 00:29N 29°59' W 093°53'0 0.0
2018-Jul-16 23:30N 29°59' W 093°53'0 0.0
2018-Jul-16 23:00N 29°59' W 093°53'0 0.0
2018-Jul-16 22:30N 29°59' W 093°53'0 0.0
2018-Jul-16 22:00N 29°59' W 093°53'0 0.0
2018-Jul-16 21:30N 29°59' W 093°53'0 0.0
2018-Jul-16 21:00N 29°59' W 093°53'0 0.0
2018-Jul-16 20:30N 29°59' W 093°53'0 0.0
2018-Jul-16 20:00N 29°59' W 093°53'0 0.0
2018-Jul-16 19:30N 29°59' W 093°53'0 0.0
2018-Jul-16 19:00N 29°59' W 093°53'0 0.0
2018-Jul-16 18:30N 29°59' W 093°53'0 0.0
2018-Jul-16 18:00N 29°59' W 093°53'1 1.7
2018-Jul-16 17:30N 29°59' W 093°52'1 2.3
2018-Jul-16 17:00N 29°58' W 093°51'0 0.0
2018-Jul-16 16:30N 29°58' W 093°51'0 0.0
2018-Jul-16 16:00N 29°58' W 093°51'0 0.0
2018-Jul-16 15:30N 29°58' W 093°51'0 0.0
2018-Jul-16 15:00N 29°58' W 093°51'0 0.0
2018-Jul-16 14:30N 29°58' W 093°51'0 0.0
2018-Jul-16 14:00N 29°58' W 093°51'0 0.0
2018-Jul-16 13:30N 29°58' W 093°51'0 0.0
2018-Jul-16 13:00N 29°58' W 093°51'0 0.0
2018-Jul-16 12:30N 29°58' W 093°51'0 0.0
2018-Jul-16 12:00N 29°58' W 093°51'0 0.0
2018-Jul-16 11:30N 29°58' W 093°51'0 0.0
2018-Jul-16 11:00N 29°58' W 093°51'0 0.0
2018-Jul-16 10:31N 29°58' W 093°51'0 0.0
2018-Jul-16 10:01N 29°58' W 093°51'0 0.0
2018-Jul-16 09:30N 29°58' W 093°51'0 0.0
2018-Jul-16 09:00N 29°58' W 093°51'0 0.0
2018-Jul-16 08:30N 29°58' W 093°51'0 0.0
2018-Jul-16 08:00N 29°58' W 093°51'0 0.0
2018-Jul-16 07:30N 29°58' W 093°51'0 0.0
2018-Jul-16 07:00N 29°58' W 093°51'0 0.0
2018-Jul-16 06:30N 29°58' W 093°51'0 0.0
2018-Jul-16 06:00N 29°58' W 093°51'0 0.0
2018-Jul-16 05:30N 29°58' W 093°51'0 0.0
2018-Jul-16 05:00N 29°58' W 093°51'0 0.0
2018-Jul-16 04:29N 29°58' W 093°51'0 0.0
2018-Jul-16 04:00N 29°58' W 093°51'0 0.0
2018-Jul-16 03:30N 29°58' W 093°51'0 0.0
2018-Jul-16 03:00N 29°58' W 093°51'0 0.3
2018-Jul-16 02:30N 29°58' W 093°51'0 0.0
2018-Jul-16 02:00N 29°58' W 093°51'0 0.0
2018-Jul-16 01:30N 29°58' W 093°51'0 0.0
2018-Jul-16 01:00N 29°58' W 093°51'0 0.0
2018-Jul-16 00:29N 29°58' W 093°51'0 0.0
2018-Jul-16 00:00N 29°58' W 093°51'0 0.0
2018-Jul-15 23:30N 29°58' W 093°51'0 0.3
2018-Jul-15 23:00N 29°58' W 093°51'0 0.0
2018-Jul-15 22:29N 29°58' W 093°51'0 0.0
2018-Jul-15 22:00N 29°58' W 093°51'0 0.0
2018-Jul-15 21:30N 29°58' W 093°51'0 0.0
2018-Jul-15 20:59N 29°58' W 093°51'0 0.0
2018-Jul-15 20:31N 29°58' W 093°51'0 0.0
2018-Jul-15 20:00N 29°58' W 093°51'0 0.0
2018-Jul-15 19:30N 29°58' W 093°51'0 0.0
2018-Jul-15 18:58N 29°58' W 093°51'0 0.0
2018-Jul-15 18:30N 29°58' W 093°51'0 0.0
2018-Jul-15 18:00N 29°58' W 093°51'0 0.0
2018-Jul-15 17:30N 29°58' W 093°51'0 0.0
2018-Jul-15 17:00N 29°58' W 093°51'0 0.0
2018-Jul-15 16:30N 29°58' W 093°51'0 0.0
2018-Jul-15 16:00N 29°58' W 093°51'0 0.0
2018-Jul-15 15:30N 29°58' W 093°51'0 0.0
2018-Jul-15 15:00N 29°58' W 093°51'0 0.0
2018-Jul-15 14:30N 29°58' W 093°51'0 0.0
2018-Jul-15 14:00N 29°58' W 093°51'0 0.0
2018-Jul-15 13:30N 29°58' W 093°51'0 0.0
2018-Jul-15 13:00N 29°58' W 093°51'0 0.0
2018-Jul-15 12:30N 29°58' W 093°51'0 0.0
2018-Jul-15 12:01N 29°58' W 093°51'0 0.0
2018-Jul-15 11:30N 29°58' W 093°51'0 0.0
2018-Jul-15 11:00N 29°58' W 093°51'0 0.0
2018-Jul-15 10:30N 29°58' W 093°51'0 0.0
2018-Jul-15 10:00N 29°58' W 093°51'0 0.0
2018-Jul-15 09:30N 29°58' W 093°51'0 0.0
2018-Jul-15 09:00N 29°58' W 093°51'0 0.0
2018-Jul-15 08:30N 29°58' W 093°51'0 0.0
2018-Jul-15 08:00N 29°58' W 093°51'0 0.0
2018-Jul-15 07:30N 29°58' W 093°51'0 0.0
2018-Jul-15 07:00N 29°58' W 093°51'0 0.0
2018-Jul-15 06:30N 29°58' W 093°51'0 0.0
2018-Jul-15 06:00N 29°58' W 093°51'0 0.0
2018-Jul-15 05:30N 29°58' W 093°51'0 0.0
2018-Jul-15 05:00N 29°58' W 093°51'0 0.0
2018-Jul-15 04:30N 29°58' W 093°51'0 0.0
2018-Jul-15 04:00N 29°58' W 093°51'0 0.0
2018-Jul-15 03:30N 29°58' W 093°51'0 0.0
2018-Jul-15 03:00N 29°58' W 093°51'0 0.0
2018-Jul-15 02:30N 29°58' W 093°51'0 0.3
2018-Jul-15 02:00N 29°58' W 093°51'0 0.0
2018-Jul-15 01:30N 29°58' W 093°51'0 0.0
2018-Jul-15 01:00N 29°58' W 093°51'0 0.0
2018-Jul-15 00:30N 29°58' W 093°51'0 0.0
2018-Jul-15 00:00N 29°58' W 093°51'0 0.1
2018-Jul-14 23:30N 29°58' W 093°51'0 0.2
2018-Jul-14 23:00N 29°58' W 093°51'0 0.0
2018-Jul-14 22:30N 29°58' W 093°51'0 0.0
2018-Jul-14 22:00N 29°58' W 093°51'0 0.0
2018-Jul-14 21:30N 29°58' W 093°51'0 0.0
2018-Jul-14 21:00N 29°58' W 093°51'0 0.0
2018-Jul-14 20:30N 29°58' W 093°51'0 0.0
2018-Jul-14 20:00N 29°58' W 093°51'0 0.0
2018-Jul-14 19:30N 29°58' W 093°51'0 0.0
2018-Jul-14 19:00N 29°58' W 093°51'0 0.0
2018-Jul-14 18:30N 29°58' W 093°51'0 0.0
2018-Jul-14 18:00N 29°58' W 093°51'1 1.6
2018-Jul-14 17:30N 29°58' W 093°51'0 0.0
2018-Jul-14 17:00N 29°58' W 093°51'0 0.0
2018-Jul-14 16:30N 29°58' W 093°51'0 0.0
2018-Jul-14 16:00N 29°58' W 093°51'0 0.0
2018-Jul-14 15:30N 29°58' W 093°51'0 0.0
2018-Jul-14 15:00N 29°58' W 093°51'0 0.0
2018-Jul-14 14:30N 29°58' W 093°51'0 0.0
2018-Jul-14 13:30N 29°58' W 093°51'1 1.4
2018-Jul-14 13:00N 29°58' W 093°51'0 0.2
2018-Jul-14 12:30N 29°58' W 093°51'0 0.0
2018-Jul-14 12:00N 29°58' W 093°51'0 0.0
2018-Jul-14 11:30N 29°58' W 093°51'0 0.0
2018-Jul-14 11:00N 29°58' W 093°51'0 0.0
2018-Jul-14 10:30N 29°58' W 093°51'0 0.0
2018-Jul-14 10:00N 29°58' W 093°51'0 0.0
2018-Jul-14 09:30N 29°58' W 093°51'0 0.0
2018-Jul-14 09:00N 29°58' W 093°51'0 0.0
2018-Jul-14 08:30N 29°58' W 093°51'0 0.0
2018-Jul-14 08:00N 29°58' W 093°51'0 0.0
2018-Jul-14 07:30N 29°58' W 093°51'0 0.0
2018-Jul-14 07:00N 29°58' W 093°51'0 0.0
2018-Jul-14 06:30N 29°58' W 093°51'0 0.0
2018-Jul-14 06:00N 29°58' W 093°51'0 0.0
2018-Jul-14 05:30N 29°58' W 093°51'0 0.0
2018-Jul-14 05:00N 29°58' W 093°51'0 0.0
2018-Jul-14 04:30N 29°58' W 093°51'0 0.0
2018-Jul-14 04:00N 29°58' W 093°51'0 0.0
2018-Jul-14 03:30N 29°58' W 093°51'0 0.0
2018-Jul-14 03:00N 29°58' W 093°51'0 0.0
2018-Jul-14 02:30N 29°58' W 093°51'0 0.0
2018-Jul-14 02:00N 29°58' W 093°51'0 0.0
2018-Jul-14 01:31N 29°58' W 093°51'0 0.0
2018-Jul-14 01:00N 29°58' W 093°51'0 0.0
2018-Jul-14 00:30N 29°58' W 093°51'0 0.0
2018-Jul-14 00:00N 29°58' W 093°51'0 0.0
2018-Jul-13 23:30N 29°58' W 093°51'0 0.0
2018-Jul-13 23:00N 29°58' W 093°51'0 0.0
2018-Jul-13 22:30N 29°58' W 093°51'0 0.0
2018-Jul-13 22:00N 29°58' W 093°51'0 0.0
2018-Jul-13 21:30N 29°58' W 093°51'0 0.0
2018-Jul-13 21:00N 29°58' W 093°51'0 0.0
2018-Jul-13 20:30N 29°58' W 093°51'0 0.0
2018-Jul-13 20:00N 29°58' W 093°51'0 0.0
2018-Jul-13 19:30N 29°58' W 093°51'0 0.0
2018-Jul-13 19:00N 29°58' W 093°51'0 0.0
2018-Jul-13 18:30N 29°58' W 093°51'1 1.6
2018-Jul-13 18:01N 29°58' W 093°52'0 0.1
2018-Jul-13 17:29N 29°58' W 093°52'0 0.0
2018-Jul-13 17:00N 29°58' W 093°52'0 0.0
2018-Jul-13 16:30N 29°58' W 093°52'0 0.0
2018-Jul-13 16:00N 29°58' W 093°52'0 0.0
2018-Jul-13 15:30N 29°58' W 093°52'1 1.5
2018-Jul-13 15:00N 29°58' W 093°51'0 0.2
2018-Jul-13 14:30N 29°58' W 093°51'0 0.0
2018-Jul-13 13:31N 29°58' W 093°51'0 0.0
2018-Jul-13 13:00N 29°58' W 093°51'0 0.0
2018-Jul-13 12:30N 29°58' W 093°51'0 0.0
2018-Jul-13 12:00N 29°58' W 093°51'0 0.0
2018-Jul-13 11:31N 29°58' W 093°51'0 0.0
2018-Jul-13 11:00N 29°58' W 093°51'0 0.0
2018-Jul-13 10:31N 29°58' W 093°51'0 0.0
2018-Jul-13 10:00N 29°58' W 093°51'0 0.0
2018-Jul-13 09:30N 29°58' W 093°51'0 0.0
2018-Jul-13 09:00N 29°58' W 093°51'0 0.0
2018-Jul-13 08:30N 29°58' W 093°51'0 0.0
2018-Jul-13 08:00N 29°58' W 093°51'0 0.3
2018-Jul-13 07:30N 29°58' W 093°51'3 6.6
2018-Jul-13 07:00N 29°55' W 093°53'4 7.3
2018-Jul-13 06:30N 29°53' W 093°55'3 6.1
2018-Jul-13 06:00N 29°50' W 093°57'3 6.6
2018-Jul-13 05:30N 29°48' W 094°00'3 6.8
2018-Jul-13 05:00N 29°46' W 094°03'2 4.5
2018-Jul-13 04:30N 29°44' W 094°05'3 6.7
2018-Jul-13 04:00N 29°42' W 094°08'4 7.3
2018-Jul-13 03:30N 29°41' W 094°12'3 6.4
2018-Jul-13 03:00N 29°39' W 094°15'4 7.0
2018-Jul-13 02:30N 29°38' W 094°19'3 6.3
2018-Jul-13 01:58N 29°36' W 094°22'20 5.8
2018-Jul-12 22:34N 29°26' W 094°42'1 7.3
2018-Jul-12 22:27N 29°26' W 094°43'3 7.4
2018-Jul-12 22:00N 29°24' W 094°46'3 5.4
2018-Jul-12 21:30N 29°23' W 094°49'23 6.7
2018-Jul-12 18:03N 29°34' W 094°25'2 7.0
2018-Jul-12 17:48N 29°36' W 094°25'1 4.0
2018-Jul-12 17:30N 29°36' W 094°23'3 5.9
2018-Jul-12 17:00N 29°37' W 094°20'4 7.4
2018-Jul-12 16:30N 29°39' W 094°16'4 7.4
2018-Jul-12 16:00N 29°41' W 094°13'4 7.2
2018-Jul-12 15:30N 29°42' W 094°09'4 7.5
2018-Jul-12 15:00N 29°44' W 094°05'4 7.6
2018-Jul-12 14:30N 29°47' W 094°02'4 7.1
2018-Jul-12 14:00N 29°49' W 093°59'3 6.2
2018-Jul-12 13:30N 29°51' W 093°57'3 6.9
2018-Jul-12 13:00N 29°54' W 093°54'3 6.8
2018-Jul-12 12:30N 29°57' W 093°52'2 3.7
2018-Jul-12 12:00N 29°58' W 093°51'0 0.2
2018-Jul-12 11:30N 29°58' W 093°51'0 0.0
2018-Jul-12 11:01N 29°58' W 093°51'0 0.0
2018-Jul-12 10:30N 29°58' W 093°51'0 0.0
2018-Jul-12 10:00N 29°58' W 093°51'0 0.0
2018-Jul-12 09:29N 29°58' W 093°51'0 0.0
2018-Jul-12 09:00N 29°58' W 093°51'0 0.0
2018-Jul-12 08:30N 29°58' W 093°51'0 0.0
2018-Jul-12 08:00N 29°58' W 093°51'0 0.0
2018-Jul-12 07:30N 29°58' W 093°51'0 0.0
2018-Jul-12 07:00N 29°58' W 093°51'0 0.0
2018-Jul-12 06:31N 29°58' W 093°51'0 0.0
2018-Jul-12 06:00N 29°58' W 093°51'0 0.0
2018-Jul-12 05:30N 29°58' W 093°51'0 0.0
2018-Jul-12 05:00N 29°58' W 093°51'0 0.0
2018-Jul-12 04:30N 29°58' W 093°51'0 0.0
2018-Jul-12 03:59N 29°58' W 093°51'0 0.0
2018-Jul-12 03:30N 29°58' W 093°51'0 0.0
2018-Jul-12 03:00N 29°58' W 093°51'0 0.0
2018-Jul-12 02:30N 29°58' W 093°51'0 0.0
2018-Jul-12 02:00N 29°58' W 093°51'0 0.7
2018-Jul-12 01:30N 29°58' W 093°51'0 0.0
2018-Jul-12 01:00N 29°58' W 093°51'0 0.0
2018-Jul-12 00:30N 29°58' W 093°51'1 1.4
2018-Jul-12 00:01N 29°59' W 093°52'3 6.1
2018-Jul-11 23:31N 29°59' W 093°55'1 3.0
2018-Jul-11 23:01N 29°60' W 093°57'0 0.0
2018-Jul-11 22:31N 29°60' W 093°57'0 0.0
2018-Jul-11 21:59N 29°60' W 093°57'0 0.0
2018-Jul-11 21:29N 29°60' W 093°57'0 0.0
2018-Jul-11 21:00N 29°60' W 093°57'0 0.0
2018-Jul-11 20:29N 29°60' W 093°57'0 0.0
2018-Jul-11 20:00N 29°60' W 093°57'0 0.0
2018-Jul-11 19:30N 29°60' W 093°57'0 0.0
2018-Jul-11 19:00N 29°60' W 093°57'0 0.0
2018-Jul-11 18:30N 29°60' W 093°57'0 0.0
2018-Jul-11 18:00N 29°60' W 093°57'0 0.0
2018-Jul-11 17:30N 29°60' W 093°57'0 0.0
2018-Jul-11 17:00N 29°60' W 093°57'0 0.0
2018-Jul-11 16:29N 29°60' W 093°57'0 0.0
2018-Jul-11 16:00N 29°60' W 093°57'0 0.0
2018-Jul-11 15:30N 29°60' W 093°57'0 0.0
2018-Jul-11 15:00N 29°60' W 093°57'0 0.0
2018-Jul-11 14:30N 29°60' W 093°57'0 0.0
2018-Jul-11 14:00N 29°60' W 093°57'0 0.0
2018-Jul-11 13:30N 29°60' W 093°57'0 0.0
2018-Jul-11 13:00N 29°60' W 093°57'0 0.0
2018-Jul-11 12:30N 29°60' W 093°57'0 0.0
2018-Jul-11 12:00N 29°60' W 093°57'0 0.0
2018-Jul-11 11:30N 29°60' W 093°57'0 0.0
2018-Jul-11 10:59N 29°60' W 093°57'0 0.0
2018-Jul-11 10:30N 29°60' W 093°57'0 0.0
2018-Jul-11 09:57N 29°60' W 093°57'0 0.0
2018-Jul-11 09:30N 29°60' W 093°57'0 0.0
2018-Jul-11 08:59N 29°60' W 093°57'0 0.0
2018-Jul-11 08:29N 29°60' W 093°57'0 0.0
2018-Jul-11 08:00N 29°60' W 093°57'0 0.0
2018-Jul-11 07:30N 29°60' W 093°57'0 0.0
2018-Jul-11 07:00N 29°60' W 093°57'0 0.0
2018-Jul-11 06:30N 29°60' W 093°57'0 0.0
2018-Jul-11 06:00N 29°60' W 093°57'0 0.0
2018-Jul-11 05:30N 29°60' W 093°57'0 0.0
2018-Jul-11 04:59N 29°60' W 093°57'0 0.0
2018-Jul-11 04:30N 29°60' W 093°57'0 0.0
2018-Jul-11 04:00N 29°60' W 093°57'0 0.0
2018-Jul-11 03:30N 29°60' W 093°57'0 0.0
2018-Jul-11 03:00N 29°60' W 093°57'0 0.0
2018-Jul-11 02:30N 29°60' W 093°57'0 0.0
2018-Jul-11 02:00N 29°60' W 093°57'0 0.0
2018-Jul-11 01:30N 29°60' W 093°57'0 0.0
2018-Jul-11 01:00N 29°60' W 093°57'0 0.0
2018-Jul-11 00:30N 29°60' W 093°57'0 0.0
2018-Jul-11 00:00N 29°60' W 093°57'0 0.0
2018-Jul-10 23:30N 29°60' W 093°57'0 0.0
2018-Jul-10 23:00N 29°60' W 093°57'0 0.5
2018-Jul-10 22:30N 29°60' W 093°57'3 5.0
2018-Jul-10 22:00N 29°59' W 093°54'2 4.6
2018-Jul-10 21:30N 29°58' W 093°51'0 1.0
2018-Jul-10 21:00N 29°58' W 093°51'0 0.0
2018-Jul-10 20:30N 29°58' W 093°51'0 0.0
2018-Jul-10 20:00N 29°58' W 093°51'0 0.0
2018-Jul-10 19:30N 29°58' W 093°51'0 0.0
2018-Jul-10 19:00N 29°58' W 093°51'0 0.0
2018-Jul-10 18:30N 29°58' W 093°51'0 0.0
2018-Jul-10 18:00N 29°58' W 093°51'0 0.0
2018-Jul-10 17:30N 29°58' W 093°51'0 0.0
2018-Jul-10 17:00N 29°58' W 093°51'0 0.0
2018-Jul-10 16:30N 29°58' W 093°51'0 0.0
2018-Jul-10 16:00N 29°58' W 093°51'0 0.0
2018-Jul-10 15:30N 29°58' W 093°51'0 0.0
2018-Jul-10 15:00N 29°58' W 093°51'0 0.2
2018-Jul-10 14:30N 29°58' W 093°51'0 0.1
2018-Jul-10 14:00N 29°58' W 093°51'0 0.0
2018-Jul-10 13:29N 29°58' W 093°51'0 0.3
2018-Jul-10 13:00N 29°58' W 093°51'0 0.3
2018-Jul-10 12:30N 29°58' W 093°51'0 0.0
2018-Jul-10 12:00N 29°58' W 093°51'0 0.0
2018-Jul-10 11:30N 29°58' W 093°51'0 0.0
2018-Jul-10 11:00N 29°58' W 093°51'0 0.0
2018-Jul-10 10:30N 29°58' W 093°51'0 0.0
2018-Jul-10 10:00N 29°58' W 093°51'0 0.0
2018-Jul-10 09:31N 29°58' W 093°51'0 0.0
2018-Jul-10 09:00N 29°58' W 093°51'0 0.0
2018-Jul-10 08:30N 29°58' W 093°51'0 0.0
2018-Jul-10 08:00N 29°58' W 093°51'0 0.0
2018-Jul-10 07:31N 29°58' W 093°51'0 0.0
2018-Jul-10 07:00N 29°58' W 093°51'0 0.0
2018-Jul-10 06:30N 29°58' W 093°51'0 0.0
2018-Jul-10 06:00N 29°58' W 093°51'0 0.0
2018-Jul-10 05:31N 29°58' W 093°51'0 0.0
2018-Jul-10 05:00N 29°58' W 093°51'0 0.0
2018-Jul-10 04:31N 29°58' W 093°51'0 0.0
2018-Jul-10 04:00N 29°58' W 093°51'0 0.0
2018-Jul-10 03:30N 29°58' W 093°51'0 0.0
2018-Jul-10 03:00N 29°58' W 093°51'0 0.0
2018-Jul-10 02:30N 29°58' W 093°51'0 0.0
2018-Jul-10 02:01N 29°58' W 093°51'0 0.0
2018-Jul-10 01:30N 29°58' W 093°51'0 0.0
2018-Jul-10 01:00N 29°58' W 093°51'0 0.0
2018-Jul-10 00:30N 29°58' W 093°51'0 0.0
2018-Jul-10 00:00N 29°58' W 093°51'0 0.0
2018-Jul-09 23:30N 29°58' W 093°51'0 0.0
2018-Jul-09 23:00N 29°58' W 093°51'0 0.0
2018-Jul-09 22:30N 29°58' W 093°51'0 0.0
2018-Jul-09 22:00N 29°58' W 093°51'0 0.0
2018-Jul-09 21:30N 29°58' W 093°51'0 0.0
2018-Jul-09 21:01N 29°58' W 093°51'0 0.0
2018-Jul-09 20:30N 29°58' W 093°51'0 0.0
2018-Jul-09 20:00N 29°58' W 093°51'0 0.0
2018-Jul-09 19:30N 29°58' W 093°51'0 0.0
2018-Jul-09 19:00N 29°58' W 093°51'  

Dump ship's entire track history